Time;durP1;ratioP1;P1;durP2;ratioP2;P2;SDS_P1;SDS_P2;PMS_P1;PMS_P2;Temp;Humidity;BMP_temperature;BMP_pressure;BME280_temperature;BME280_humidity;BME280_pressure;Samples;Min_cycle;Max_cycle;Signal;HPM_P1;HPM_P2
2023/06/03 00:01:23;;;;;;;2.00;1.00;;;13.60;99.90;;;;;;5098345;28;20474;-57
2023/06/03 00:03:49;;;;;;;2.35;1.00;;;13.60;99.90;;;;;;5096924;28;20042;-57
2023/06/03 00:06:15;;;;;;;1.92;0.80;;;13.60;99.90;;;;;;5098136;28;20397;-56
2023/06/03 00:08:42;;;;;;;2.83;0.70;;;13.50;99.90;;;;;;5098311;28;20040;-57
2023/06/03 00:11:08;;;;;;;1.33;0.88;;;13.50;99.90;;;;;;5097525;28;20092;-57
2023/06/03 00:13:34;;;;;;;3.78;0.90;;;13.50;99.90;;;;;;5093666;28;20402;-56
2023/06/03 00:16:00;;;;;;;1.77;1.10;;;13.40;99.90;;;;;;5098288;28;20115;-58
2023/06/03 00:18:26;;;;;;;1.70;1.00;;;13.40;99.90;;;;;;5098238;28;20086;-57
2023/06/03 00:20:53;;;;;;;1.73;0.75;;;13.50;99.90;;;;;;5069922;28;20154;-57
2023/06/03 00:23:18;;;;;;;3.60;1.08;;;13.40;99.90;;;;;;5098419;28;20051;-58
2023/06/03 00:25:44;;;;;;;2.05;0.80;;;13.40;99.90;;;;;;5089461;28;20529;-57
2023/06/03 00:28:10;;;;;;;1.42;0.90;;;13.40;99.90;;;;;;5098630;28;20036;-57
2023/06/03 00:30:36;;;;;;;0.90;0.68;;;13.30;99.90;;;;;;5098163;28;20443;-58
2023/06/03 00:33:02;;;;;;;6.72;1.15;;;13.30;99.90;;;;;;5098195;28;20040;-55
2023/06/03 00:35:28;;;;;;;3.25;0.90;;;13.30;99.90;;;;;;5098150;28;20493;-57
2023/06/03 00:37:54;;;;;;;3.15;1.08;;;13.30;99.90;;;;;;5098147;28;20032;-57
2023/06/03 00:40:20;;;;;;;3.65;0.88;;;13.20;99.90;;;;;;5096832;28;20028;-56
2023/06/03 00:42:46;;;;;;;2.47;0.80;;;13.30;99.90;;;;;;5098143;28;20036;-57
2023/06/03 00:45:11;;;;;;;2.85;1.10;;;13.20;99.90;;;;;;5098158;28;20420;-57
2023/06/03 00:47:38;;;;;;;1.55;0.90;;;13.20;99.90;;;;;;5097929;28;20046;-57
2023/06/03 00:50:06;;;;;;;2.08;0.98;;;13.20;99.90;;;;;;5093345;28;20557;-58
2023/06/03 00:52:33;;;;;;;1.63;1.05;;;13.10;99.90;;;;;;5082793;28;20066;-57
2023/06/03 00:54:59;;;;;;;3.72;1.00;;;13.10;99.90;;;;;;5094441;28;20032;-57
2023/06/03 00:57:26;;;;;;;3.80;1.17;;;13.00;99.90;;;;;;5090716;28;20387;-56
2023/06/03 00:59:52;;;;;;;6.80;1.38;;;13.00;99.90;;;;;;5088031;28;20039;-57
2023/06/03 01:02:19;;;;;;;3.85;1.15;;;13.00;99.90;;;;;;5094396;28;20032;-57
2023/06/03 01:04:47;;;;;;;3.80;1.02;;;12.90;99.90;;;;;;5094799;28;20028;-57
2023/06/03 01:07:46;;;;;;;1.30;0.77;;;12.90;99.90;;;;;;5094736;28;20110;-57
2023/06/03 01:10:35;;;;;;;1.63;1.02;;;12.90;99.90;;;;;;5031906;28;20045;-56
2023/06/03 01:13:16;;;;;;;1.92;0.90;;;12.80;99.90;;;;;;5031927;28;20060;-57
2023/06/03 01:15:45;;;;;;;3.53;0.90;;;12.80;99.90;;;;;;5031937;28;20161;-57
2023/06/03 01:18:14;;;;;;;1.27;0.98;;;12.80;99.90;;;;;;5032162;28;20121;-56
2023/06/03 01:20:40;;;;;;;4.57;1.02;;;12.80;99.90;;;;;;5031745;28;20049;-57
2023/06/03 01:23:28;;;;;;;4.70;0.90;;;12.70;99.90;;;;;;5015427;28;20038;-57
2023/06/03 01:25:56;;;;;;;2.65;0.90;;;12.70;99.90;;;;;;5031678;28;20049;-57
2023/06/03 01:28:23;;;;;;;3.95;1.20;;;12.70;99.90;;;;;;5031815;28;20081;-57
2023/06/03 01:30:50;;;;;;;3.55;1.27;;;12.70;99.90;;;;;;5031692;28;20438;-57
2023/06/03 01:33:21;;;;;;;1.15;0.63;;;12.80;99.90;;;;;;5031578;28;20152;-57
2023/06/03 01:35:53;;;;;;;1.42;0.90;;;12.80;99.90;;;;;;5031708;28;20041;-56
2023/06/03 01:38:19;;;;;;;3.13;1.10;;;12.70;99.90;;;;;;5031393;28;20063;-56
2023/06/03 01:40:45;;;;;;;2.00;0.77;;;12.70;99.90;;;;;;5031526;28;20194;-58
2023/06/03 01:43:11;;;;;;;5.28;0.93;;;12.70;99.90;;;;;;5031494;28;20487;-57
2023/06/03 01:45:37;;;;;;;2.88;1.30;;;12.70;99.90;;;;;;5031442;28;20052;-56
2023/06/03 01:48:04;;;;;;;2.70;0.90;;;12.60;99.90;;;;;;5077375;28;20044;-56
2023/06/03 01:50:29;;;;;;;1.83;1.00;;;12.60;99.90;;;;;;5093471;28;20371;-57
2023/06/03 01:52:55;;;;;;;2.95;0.98;;;12.60;99.90;;;;;;5092071;28;20048;-57
2023/06/03 01:55:21;;;;;;;2.22;0.90;;;12.50;99.90;;;;;;5089723;28;20213;-56
2023/06/03 01:57:47;;;;;;;3.47;1.10;;;12.60;99.90;;;;;;5091939;28;20040;-56
2023/06/03 02:00:13;;;;;;;2.30;0.90;;;12.50;99.90;;;;;;5093566;28;20409;-57
2023/06/03 02:02:39;;;;;;;1.52;0.80;;;12.50;99.90;;;;;;5126029;27;20486;-57
2023/06/03 02:05:05;;;;;;;2.38;1.20;;;12.40;99.90;;;;;;5093638;28;20032;-57
2023/06/03 02:07:31;;;;;;;1.17;0.82;;;12.50;99.90;;;;;;5093253;28;20481;-56
2023/06/03 02:09:57;;;;;;;2.63;0.90;;;12.40;99.90;;;;;;5093326;28;20058;-57
2023/06/03 02:12:23;;;;;;;2.00;1.20;;;12.40;99.90;;;;;;5093192;28;20055;-57
2023/06/03 02:14:53;;;;;;;1.42;0.98;;;12.40;99.90;;;;;;5093608;28;20036;-57
2023/06/03 02:17:24;;;;;;;2.50;1.00;;;12.40;99.90;;;;;;5093501;28;20386;-56
2023/06/03 02:19:54;;;;;;;2.00;0.90;;;12.40;99.90;;;;;;5092257;28;20395;-56
2023/06/03 02:22:20;;;;;;;0.93;0.85;;;12.30;99.90;;;;;;5093248;28;20039;-56
2023/06/03 02:24:46;;;;;;;2.40;1.30;;;12.20;99.90;;;;;;5093050;28;20040;-57
2023/06/03 02:27:14;;;;;;;1.55;1.02;;;12.30;99.90;;;;;;5093323;28;20105;-57
2023/06/03 02:29:42;;;;;;;1.70;1.10;;;12.30;99.90;;;;;;5093073;28;20040;-54
2023/06/03 02:32:08;;;;;;;4.03;0.85;;;12.20;99.90;;;;;;5093247;28;20032;-56
2023/06/03 02:34:34;;;;;;;3.58;1.20;;;12.20;99.90;;;;;;5092780;28;20036;-56
2023/06/03 02:36:59;;;;;;;1.23;1.00;;;12.10;99.90;;;;;;5093098;28;20120;-56
2023/06/03 02:39:25;;;;;;;2.60;1.35;;;12.10;99.90;;;;;;5092818;28;20170;-56
2023/06/03 02:41:51;;;;;;;1.55;1.05;;;12.10;99.90;;;;;;5092795;28;20040;-56
2023/06/03 02:44:18;;;;;;;1.42;0.80;;;12.00;99.90;;;;;;5092847;28;20147;-57
2023/06/03 02:46:44;;;;;;;2.03;0.98;;;12.00;99.90;;;;;;5091185;28;20043;-57
2023/06/03 02:49:10;;;;;;;1.40;0.88;;;12.00;99.90;;;;;;5092769;28;20040;-56
2023/06/03 02:51:36;;;;;;;2.75;1.25;;;12.00;99.90;;;;;;5091838;28;20060;-56
2023/06/03 02:54:02;;;;;;;1.25;0.77;;;11.90;99.90;;;;;;5092450;28;20052;-57
2023/06/03 02:56:28;;;;;;;1.55;0.88;;;11.90;99.90;;;;;;5092361;28;20071;-56
2023/06/03 02:58:54;;;;;;;4.88;1.45;;;11.90;99.90;;;;;;5092733;28;20064;-57
2023/06/03 03:01:21;;;;;;;4.82;1.08;;;11.90;99.90;;;;;;5092263;28;20036;-56
2023/06/03 03:03:47;;;;;;;2.13;0.90;;;11.90;99.90;;;;;;5092447;28;20039;-57
2023/06/03 03:06:16;;;;;;;3.40;1.27;;;11.70;99.90;;;;;;5092340;28;20074;-55
2023/06/03 03:08:42;;;;;;;2.33;0.98;;;11.80;99.90;;;;;;5092333;28;20047;-59
2023/06/03 03:11:11;;;;;;;1.98;1.10;;;11.70;99.90;;;;;;5092229;28;20036;-59
2023/06/03 03:13:36;;;;;;;3.03;1.13;;;11.60;99.90;;;;;;5092961;28;20367;-59
2023/06/03 03:16:02;;;;;;;3.28;1.00;;;11.60;99.90;;;;;;5093026;28;20046;-59
2023/06/03 03:18:30;;;;;;;1.77;0.93;;;11.50;99.90;;;;;;5092851;28;20040;-57
2023/06/03 03:20:56;;;;;;;3.92;1.20;;;11.50;99.90;;;;;;5125981;27;20135;-58
2023/06/03 03:23:21;;;;;;;4.15;1.02;;;11.60;99.90;;;;;;5092789;28;20107;-58
2023/06/03 03:25:47;;;;;;;1.65;1.00;;;11.50;99.90;;;;;;5092897;28;20462;-58
2023/06/03 03:28:13;;;;;;;5.72;1.58;;;11.50;99.90;;;;;;5092359;28;20032;-59
2023/06/03 03:30:39;;;;;;;1.80;1.02;;;11.50;99.90;;;;;;5092725;28;20066;-58
2023/06/03 03:33:05;;;;;;;2.33;1.35;;;11.40;99.90;;;;;;5092624;28;20035;-58
2023/06/03 03:35:32;;;;;;;2.40;0.98;;;11.40;99.90;;;;;;5092616;28;20066;-59
2023/06/03 03:38:02;;;;;;;1.70;0.90;;;11.40;99.90;;;;;;5092921;28;20043;-58
2023/06/03 03:40:29;;;;;;;4.40;1.20;;;11.30;99.90;;;;;;5092703;28;20054;-58
2023/06/03 03:42:56;;;;;;;1.30;0.90;;;11.30;99.90;;;;;;5092265;28;20067;-57
2023/06/03 03:45:25;;;;;;;1.65;0.85;;;11.30;99.90;;;;;;5092591;28;20031;-57
2023/06/03 03:48:01;;;;;;;3.35;1.10;;;11.30;99.90;;;;;;5092491;28;20040;-58
2023/06/03 03:50:40;;;;;;;2.17;1.02;;;11.30;99.90;;;;;;5092270;28;20054;-58
2023/06/03 03:53:08;;;;;;;3.92;0.98;;;11.30;99.90;;;;;;5092301;28;20146;-58
2023/06/03 03:55:47;;;;;;;3.08;0.93;;;11.30;99.90;;;;;;5092672;28;20111;-58
2023/06/03 03:58:25;;;;;;;4.30;1.00;;;11.30;99.90;;;;;;5092564;28;20040;-58
2023/06/03 04:00:51;;;;;;;1.98;0.80;;;11.40;99.90;;;;;;5092572;28;20554;-59
2023/06/03 04:03:17;;;;;;;1.85;0.88;;;11.30;99.90;;;;;;5091786;28;20039;-55
2023/06/03 04:05:47;;;;;;;3.33;1.05;;;11.30;99.90;;;;;;5091820;28;20040;-57
2023/06/03 04:08:36;;;;;;;2.25;1.38;;;11.30;99.90;;;;;;5123837;28;20456;-56
2023/06/03 04:11:03;;;;;;;2.60;1.35;;;11.40;99.90;;;;;;5092085;28;20036;-57
2023/06/03 04:13:28;;;;;;;1.30;0.75;;;11.30;99.90;;;;;;5090699;28;20055;-58
2023/06/03 04:15:54;;;;;;;3.45;0.90;;;11.30;99.90;;;;;;5092306;28;20032;-57
2023/06/03 04:18:21;;;;;;;1.27;0.93;;;11.30;99.90;;;;;;5090686;28;20417;-58
2023/06/03 04:20:48;;;;;;;2.80;1.30;;;11.30;99.90;;;;;;5091986;28;20039;-58
2023/06/03 04:23:20;;;;;;;2.03;0.70;;;11.40;99.90;;;;;;5092138;28;20118;-58
2023/06/03 04:25:46;;;;;;;4.32;1.33;;;11.40;99.90;;;;;;5095986;28;20135;-57
2023/06/03 04:28:12;;;;;;;2.05;1.13;;;11.40;99.90;;;;;;5094873;28;20532;-57
2023/06/03 04:30:39;;;;;;;3.35;1.25;;;11.50;99.90;;;;;;5095909;28;20494;-57
2023/06/03 04:33:05;;;;;;;5.25;1.50;;;11.60;99.90;;;;;;5086207;28;20140;-58
2023/06/03 04:35:31;;;;;;;3.50;1.20;;;11.60;99.90;;;;;;5096138;28;20111;-58
2023/06/03 04:38:00;;;;;;;3.10;1.02;;;11.70;99.90;;;;;;5095920;28;20115;-58
2023/06/03 04:40:27;;;;;;;1.15;0.98;;;11.70;99.90;;;;;;5095759;28;20535;-58
2023/06/03 04:42:53;;;;;;;3.10;1.20;;;11.80;99.90;;;;;;5094486;28;20070;-57
2023/06/03 04:45:23;;;;;;;2.15;1.15;;;11.80;99.90;;;;;;5095825;28;20039;-57
2023/06/03 04:47:58;;;;;;;4.03;1.10;;;11.90;99.90;;;;;;5096179;28;20047;-58
2023/06/03 04:50:24;;;;;;;2.25;1.13;;;12.00;99.90;;;;;;5095759;28;20413;-60
2023/06/03 04:52:51;;;;;;;1.88;0.80;;;12.00;99.90;;;;;;5095834;28;20052;-58
2023/06/03 04:55:16;;;;;;;4.03;1.30;;;12.10;99.90;;;;;;5095567;28;20028;-58
2023/06/03 04:57:45;;;;;;;4.20;1.20;;;12.20;99.90;;;;;;5095919;28;20450;-58
2023/06/03 05:00:11;;;;;;;;;;;12.30;99.90;;;;;;5094773;28;20043;-58
2023/06/03 05:02:37;;;;;;;2.65;1.30;;;12.30;99.90;;;;;;5095675;28;19916;-58
2023/06/03 05:05:03;;;;;;;2.40;1.10;;;12.40;99.90;;;;;;5095366;28;20123;-58
2023/06/03 05:07:29;;;;;;;1.98;1.17;;;12.50;99.90;;;;;;5094256;28;20135;-57
2023/06/03 05:09:55;;;;;;;6.43;1.55;;;12.60;99.90;;;;;;5095503;28;20032;-57
2023/06/03 05:12:22;;;;;;;2.42;1.48;;;12.60;99.90;;;;;;5095104;28;20032;-58
2023/06/03 05:14:47;;;;;;;4.18;1.58;;;12.60;99.90;;;;;;5095148;28;20047;-58
2023/06/03 05:17:13;;;;;;;6.00;2.03;;;12.60;99.90;;;;;;5095280;28;20036;-57
2023/06/03 05:19:39;;;;;;;4.50;1.40;;;12.60;99.90;;;;;;5095157;28;20028;-58
2023/06/03 05:22:04;;;;;;;2.17;1.10;;;12.60;99.90;;;;;;5095381;28;20039;-58
2023/06/03 05:24:30;;;;;;;1.75;1.02;;;12.60;99.90;;;;;;5095328;28;20386;-58
2023/06/03 05:26:56;;;;;;;3.70;1.23;;;12.70;99.90;;;;;;5128434;27;20497;-58
2023/06/03 05:29:21;;;;;;;4.22;1.33;;;12.90;99.90;;;;;;5094726;28;20036;-58
2023/06/03 05:31:47;;;;;;;4.60;1.27;;;13.00;99.90;;;;;;5093807;28;20043;-58
2023/06/03 05:34:14;;;;;;;4.85;1.30;;;13.00;99.90;;;;;;5094124;28;20050;-57
2023/06/03 05:36:39;;;;;;;2.03;1.25;;;13.20;99.90;;;;;;5094839;28;20039;-57
2023/06/03 05:39:05;;;;;;;1.13;1.02;;;13.30;99.90;;;;;;5094939;28;20044;-58
2023/06/03 05:41:32;;;;;;;1.55;1.30;;;13.40;99.90;;;;;;5094795;28;20425;-58
2023/06/03 05:43:57;;;;;;;2.50;1.10;;;13.60;99.90;;;;;;5094795;28;20435;-58
2023/06/03 05:46:23;;;;;;;1.60;1.00;;;13.60;99.90;;;;;;5094774;28;20040;-58
2023/06/03 05:48:48;;;;;;;2.42;1.25;;;13.70;99.90;;;;;;5093461;28;20093;-59
2023/06/03 05:51:15;;;;;;;2.28;1.13;;;13.80;99.90;;;;;;5126789;27;20066;-57
2023/06/03 05:53:43;;;;;;;3.97;1.20;;;14.00;99.90;;;;;;5094302;28;20048;-57
2023/06/03 05:56:10;;;;;;;3.85;1.00;;;14.10;99.90;;;;;;5093366;28;20450;-57
2023/06/03 05:58:36;;;;;;;3.45;1.20;;;14.20;99.90;;;;;;5094271;28;20040;-57
2023/06/03 06:01:01;;;;;;;1.63;0.98;;;14.40;99.90;;;;;;5094732;28;20062;-58
2023/06/03 06:03:27;;;;;;;5.13;1.42;;;14.50;99.90;;;;;;5094163;28;20051;-58
2023/06/03 06:05:53;;;;;;;4.53;1.13;;;14.60;99.90;;;;;;5094689;28;20089;-58
2023/06/03 06:08:19;;;;;;;2.17;1.05;;;14.80;99.90;;;;;;5094399;28;20044;-57
2023/06/03 06:10:44;;;;;;;4.80;1.50;;;15.00;99.90;;;;;;5094434;28;20039;-57
2023/06/03 06:13:10;;;;;;;4.28;1.20;;;15.00;99.90;;;;;;5094342;28;20467;-57
2023/06/03 06:15:36;;;;;;;5.40;1.13;;;14.80;99.90;;;;;;5094032;28;20473;-57
2023/06/03 06:18:01;;;;;;;2.72;1.02;;;14.90;99.90;;;;;;5094330;28;20068;-57
2023/06/03 06:20:27;;;;;;;2.15;1.10;;;15.10;99.90;;;;;;5093646;28;20040;-58
2023/06/03 06:22:53;;;;;;;6.63;1.30;;;15.30;99.90;;;;;;5094009;28;20061;-57
2023/06/03 06:25:20;;;;;;;2.45;1.30;;;15.40;99.90;;;;;;5093697;28;20044;-57
2023/06/03 06:27:46;;;;;;;1.80;1.50;;;15.60;99.90;;;;;;5064707;28;20079;-57
2023/06/03 06:30:15;;;;;;;1.92;1.05;;;15.80;99.90;;;;;;5093892;28;20068;-57
2023/06/03 06:32:50;;;;;;;2.40;1.00;;;15.90;99.90;;;;;;5091446;28;20052;-57
2023/06/03 06:35:17;;;;;;;1.88;1.10;;;15.90;99.90;;;;;;5093954;28;20032;-57
2023/06/03 06:37:43;;;;;;;1.45;0.90;;;16.10;99.90;;;;;;5093502;28;20070;-57
2023/06/03 06:40:19;;;;;;;3.22;1.25;;;16.30;99.90;;;;;;5093854;28;20398;-58
2023/06/03 06:42:45;;;;;;;3.20;1.05;;;16.40;99.90;;;;;;5094036;28;20374;-58
2023/06/03 06:45:26;;;;;;;5.88;1.20;;;16.60;99.90;;;;;;5088798;28;20479;-57
2023/06/03 06:48:08;;;;;;;3.53;1.70;;;16.80;99.90;;;;;;5072020;28;20052;-57
2023/06/03 06:50:48;;;;;;;2.92;1.10;;;17.00;99.90;;;;;;5071343;28;20052;-57
2023/06/03 06:53:15;;;;;;;4.20;1.30;;;17.00;99.90;;;;;;5071959;28;20052;-57
2023/06/03 06:55:50;;;;;;;3.45;1.20;;;17.10;99.90;;;;;;5073064;28;20139;-57
2023/06/03 06:58:16;;;;;;;4.65;1.33;;;17.50;99.90;;;;;;5072026;28;20047;-56
2023/06/03 07:00:42;;;;;;;2.70;1.17;;;17.60;99.90;;;;;;5073377;28;20033;-57
2023/06/03 07:03:09;;;;;;;1.67;0.95;;;17.70;99.90;;;;;;5072861;28;20032;-58
2023/06/03 07:05:35;;;;;;;1.52;0.95;;;17.90;99.90;;;;;;5072671;28;20058;-57
2023/06/03 07:08:01;;;;;;;3.33;1.17;;;18.20;99.90;;;;;;5072869;28;20108;-58
2023/06/03 07:10:27;;;;;;;1.63;1.02;;;18.30;99.90;;;;;;5072817;28;20032;-58
2023/06/03 07:12:53;;;;;;;3.60;1.45;;;18.60;99.70;;;;;;5072526;28;20044;-58
2023/06/03 07:15:19;;;;;;;2.15;1.20;;;18.80;99.80;;;;;;5062791;28;20120;-57
2023/06/03 07:17:54;;;;;;;1.73;1.08;;;19.00;99.50;;;;;;5070099;28;20032;-56
2023/06/03 07:20:33;;;;;;;4.07;0.88;;;19.20;99.00;;;;;;5067880;28;20464;-56
2023/06/03 07:22:59;;;;;;;1.60;0.80;;;19.30;98.10;;;;;;5064370;28;20560;-57
2023/06/03 07:25:45;;;;;;;1.08;0.85;;;19.20;97.30;;;;;;5060522;28;20047;-57
2023/06/03 07:28:16;;;;;;;3.63;1.25;;;19.50;98.20;;;;;;5072473;28;20032;-56
2023/06/03 07:30:43;;;;;;;1.60;0.85;;;19.70;97.90;;;;;;5061431;28;20050;-57
2023/06/03 07:33:19;;;;;;;2.30;0.95;;;19.70;97.80;;;;;;5074136;28;20043;-56
2023/06/03 07:35:45;;;;;;;1.85;0.88;;;19.60;97.90;;;;;;5091143;28;20040;-57
2023/06/03 07:38:24;;;;;;;4.20;0.88;;;19.20;97.30;;;;;;5071742;28;20108;-56
2023/06/03 07:40:50;;;;;;;1.80;0.80;;;18.90;97.40;;;;;;5071808;28;20379;-56
2023/06/03 07:43:21;;;;;;;0.90;0.80;;;18.80;99.10;;;;;;5084845;28;20050;-57
2023/06/03 07:45:48;;;;;;;2.50;0.90;;;18.50;97.90;;;;;;5072691;28;20044;-58
2023/06/03 07:48:15;;;;;;;2.92;0.80;;;18.30;98.40;;;;;;5069664;28;20036;-57
2023/06/03 07:50:40;;;;;;;3.08;0.90;;;18.20;98.80;;;;;;5069958;28;20452;-58
2023/06/03 07:53:07;;;;;;;4.32;1.08;;;18.10;99.60;;;;;;5059661;28;20045;-58
2023/06/03 07:55:44;;;;;;;2.72;0.93;;;18.00;99.30;;;;;;5067760;28;20111;-59
2023/06/03 07:58:10;;;;;;;1.73;1.00;;;18.00;99.60;;;;;;5085547;28;20086;-57
2023/06/03 08:00:42;;;;;;;1.25;0.73;;;17.90;99.00;;;;;;5081770;28;20094;-58
2023/06/03 08:03:07;;;;;;;4.10;0.88;;;17.90;98.40;;;;;;5065333;28;20045;-57
2023/06/03 08:05:37;;;;;;;2.50;0.98;;;18.00;98.80;;;;;;5068000;28;20051;-59
2023/06/03 08:08:04;;;;;;;2.10;0.85;;;18.10;99.40;;;;;;5066991;28;20072;-56
2023/06/03 08:10:30;;;;;;;1.40;0.80;;;18.30;99.60;;;;;;5071366;28;20028;-57
2023/06/03 08:12:56;;;;;;;7.07;1.10;;;18.70;98.80;;;;;;5083226;28;20509;-57
2023/06/03 08:15:27;;;;;;;2.75;0.82;;;19.10;99.30;;;;;;5075320;28;20495;-57
2023/06/03 08:17:53;;;;;;;1.33;0.80;;;19.30;98.80;;;;;;5092401;28;20046;-58
2023/06/03 08:20:26;;;;;;;5.07;1.13;;;19.70;98.40;;;;;;5085231;28;20098;-58
2023/06/03 08:22:53;;;;;;;1.25;0.80;;;20.10;98.40;;;;;;5075803;28;20062;-58
2023/06/03 08:25:18;;;;;;;2.33;0.88;;;20.50;98.20;;;;;;5075747;28;20044;-58
2023/06/03 08:27:44;;;;;;;4.90;1.35;;;20.70;96.80;;;;;;5076076;28;20394;-58
2023/06/03 08:30:14;;;;;;;3.08;1.00;;;20.90;97.10;;;;;;5075656;28;20375;-56
2023/06/03 08:32:41;;;;;;;2.67;1.02;;;21.10;96.50;;;;;;5068437;28;20521;-57
2023/06/03 08:35:08;;;;;;;2.65;1.05;;;21.40;96.10;;;;;;5094676;28;20039;-57
2023/06/03 08:37:34;;;;;;;2.63;1.20;;;21.60;96.30;;;;;;5082412;28;20343;-58
2023/06/03 08:40:07;;;;;;;2.63;0.90;;;21.80;95.60;;;;;;5074671;28;20033;-56
2023/06/03 08:42:40;;;;;;;1.23;0.70;;;21.90;95.70;;;;;;5063888;28;20425;-57
2023/06/03 08:45:07;;;;;;;1.70;0.82;;;22.00;94.30;;;;;;5073526;28;20395;-56
2023/06/03 08:47:33;;;;;;;2.80;0.70;;;22.40;94.90;;;;;;5074545;28;20040;-57
2023/06/03 08:50:11;;;;;;;0.93;0.70;;;22.30;94.10;;;;;;5064021;28;20036;-57
2023/06/03 08:52:39;;;;;;;2.17;1.25;;;22.60;93.70;;;;;;5065619;28;20119;-57
2023/06/03 08:55:08;;;;;;;2.45;0.80;;;22.80;93.60;;;;;;5069093;28;20059;-57
2023/06/03 08:57:37;;;;;;;1.52;0.70;;;23.00;93.40;;;;;;5063880;28;20111;-57
2023/06/03 09:00:05;;;;;;;;;;;23.20;93.30;;;;;;5073309;28;20133;-59
2023/06/03 09:02:32;;;;;;;2.72;0.75;;;22.90;91.30;;;;;;5063674;28;19916;-58
2023/06/03 09:05:01;;;;;;;1.80;0.77;;;23.10;91.50;;;;;;5071712;28;20044;-59
2023/06/03 09:07:30;;;;;;;3.10;0.80;;;22.90;91.50;;;;;;5064591;28;20076;-58
2023/06/03 09:10:08;;;;;;;2.20;0.77;;;23.20;92.40;;;;;;5071979;28;20044;-57
2023/06/03 09:12:34;;;;;;;1.02;0.60;;;23.10;91.50;;;;;;5071701;28;20040;-58
2023/06/03 09:15:01;;;;;;;1.80;0.70;;;23.10;90.80;;;;;;5074037;28;20044;-58
2023/06/03 09:17:28;;;;;;;3.38;0.57;;;22.80;91.70;;;;;;5074089;28;20028;-57
2023/06/03 09:19:55;;;;;;;1.48;0.70;;;22.70;91.50;;;;;;5073865;28;20046;-57
2023/06/03 09:22:22;;;;;;;1.23;0.70;;;23.00;91.30;;;;;;5072590;28;20110;-56
2023/06/03 09:24:48;;;;;;;3.20;0.63;;;23.10;91.90;;;;;;5073638;28;20037;-56
2023/06/03 09:27:13;;;;;;;2.88;0.70;;;23.30;91.30;;;;;;5073757;28;20321;-57
2023/06/03 09:29:41;;;;;;;1.55;0.70;;;23.10;91.00;;;;;;5073870;28;20110;-58
2023/06/03 09:32:08;;;;;;;1.90;0.60;;;23.50;91.40;;;;;;5074232;28;20123;-57
2023/06/03 09:34:34;;;;;;;3.25;1.00;;;23.80;90.80;;;;;;5090235;28;20044;-57
2023/06/03 09:37:10;;;;;;;1.60;0.73;;;23.90;90.50;;;;;;5093880;28;20040;-57
2023/06/03 09:39:37;;;;;;;2.88;1.10;;;23.50;90.90;;;;;;5094019;28;20113;-57
2023/06/03 09:42:03;;;;;;;1.92;0.82;;;23.40;91.00;;;;;;5094191;28;20424;-57
2023/06/03 09:44:49;;;;;;;1.88;0.80;;;23.50;91.00;;;;;;5127044;27;20157;-57
2023/06/03 09:47:15;;;;;;;1.25;0.95;;;23.60;89.30;;;;;;5071038;28;20068;-57
2023/06/03 09:50:08;;;;;;;1.08;0.70;;;23.50;90.70;;;;;;5093547;28;20078;-57
2023/06/03 09:52:36;;;;;;;1.80;0.70;;;23.90;90.50;;;;;;5093799;28;20051;-57
2023/06/03 09:55:04;;;;;;;2.10;0.80;;;24.00;91.40;;;;;;5093449;28;20043;-57
2023/06/03 09:57:30;;;;;;;2.15;0.75;;;23.80;89.80;;;;;;5126478;27;20037;-56
2023/06/03 10:00:22;;;;;;;4.85;0.95;;;23.80;90.60;;;;;;5093548;28;20481;-56
2023/06/03 10:02:48;;;;;;;3.25;0.90;;;23.80;90.90;;;;;;5090415;28;20044;-58
2023/06/03 10:05:25;;;;;;;3.00;0.68;;;23.80;91.20;;;;;;5093060;28;20081;-57
2023/06/03 10:07:51;;;;;;;3.03;1.25;;;23.80;91.20;;;;;;5093342;28;20066;-57
2023/06/03 10:10:17;;;;;;;1.65;1.10;;;23.50;90.60;;;;;;5093184;28;20059;-58
2023/06/03 10:12:44;;;;;;;2.00;1.10;;;23.70;91.40;;;;;;5092963;28;20036;-56
2023/06/03 10:15:10;;;;;;;1.77;0.80;;;23.70;90.60;;;;;;5093321;28;20044;-57
2023/06/03 10:17:44;;;;;;;3.08;0.70;;;24.00;91.10;;;;;;5093462;28;20138;-56
2023/06/03 10:20:10;;;;;;;1.45;0.60;;;24.00;90.70;;;;;;5093304;28;20107;-58
2023/06/03 10:22:39;;;;;;;1.30;0.75;;;24.00;90.40;;;;;;5093040;28;20181;-57
2023/06/03 10:25:06;;;;;;;3.95;0.73;;;23.80;90.80;;;;;;5092832;28;20077;-57
2023/06/03 10:27:32;;;;;;;3.30;0.80;;;24.00;90.90;;;;;;5092908;28;20043;-58
2023/06/03 10:29:59;;;;;;;2.42;0.80;;;24.20;90.10;;;;;;5093045;28;20389;-57
2023/06/03 10:32:26;;;;;;;1.20;0.70;;;24.40;91.10;;;;;;5125471;27;20032;-56
2023/06/03 10:34:53;;;;;;;4.20;1.17;;;24.40;90.00;;;;;;5092685;28;20029;-57
2023/06/03 10:37:19;;;;;;;3.95;1.00;;;24.40;89.50;;;;;;5092716;28;20044;-56
2023/06/03 10:39:45;;;;;;;3.28;2.55;;;24.40;90.30;;;;;;5092947;28;20036;-57
2023/06/03 10:42:12;;;;;;;1.38;0.93;;;24.40;90.40;;;;;;5091712;28;20044;-57
2023/06/03 10:44:39;;;;;;;1.60;1.00;;;24.50;90.40;;;;;;5092761;28;20043;-57
2023/06/03 10:47:06;;;;;;;1.58;0.80;;;24.60;90.40;;;;;;5092500;28;20482;-57
2023/06/03 10:49:46;;;;;;;3.33;0.90;;;24.20;88.90;;;;;;5092606;28;20118;-57
2023/06/03 10:53:07;;;;;;;3.38;0.75;;;24.40;90.70;;;;;;5067029;28;20547;-57
2023/06/03 10:55:41;;;;;;;4.40;1.20;;;24.50;90.80;;;;;;4971549;28;20071;-57
2023/06/03 10:58:19;;;;;;;3.83;1.10;;;24.60;90.10;;;;;;4970983;28;20051;-57
2023/06/03 11:01:03;;;;;;;2.88;0.80;;;24.60;90.00;;;;;;4971202;28;20409;-57
2023/06/03 11:03:31;;;;;;;2.60;0.85;;;24.50;89.20;;;;;;4970894;28;20039;-59
2023/06/03 11:06:21;;;;;;;1.38;0.90;;;24.70;90.90;;;;;;4971051;28;20102;-58
2023/06/03 11:09:08;;;;;;;3.92;0.73;;;24.90;91.80;;;;;;4971045;28;20461;-58
2023/06/03 11:11:42;;;;;;;1.45;1.30;;;24.90;90.50;;;;;;4971054;28;20105;-57
2023/06/03 11:14:11;;;;;;;2.45;0.95;;;25.00;88.80;;;;;;4954694;28;20098;-57
2023/06/03 11:16:56;;;;;;;4.93;0.82;;;24.60;88.00;;;;;;4971001;28;20490;-57
2023/06/03 11:19:34;;;;;;;1.75;0.63;;;24.20;88.80;;;;;;4970895;28;20087;-58
2023/06/03 11:22:01;;;;;;;1.52;0.80;;;24.40;89.20;;;;;;4970933;28;20050;-57
2023/06/03 11:24:38;;;;;;;0.85;0.68;;;24.40;88.70;;;;;;4954730;28;20066;-58
2023/06/03 11:27:13;;;;;;;3.45;0.73;;;24.40;88.20;;;;;;4970658;28;20050;-57
2023/06/03 11:29:51;;;;;;;2.33;0.82;;;24.30;89.60;;;;;;4970836;28;20043;-58
2023/06/03 11:32:27;;;;;;;4.37;0.80;;;24.20;90.00;;;;;;5039887;28;20054;-59
2023/06/03 11:35:05;;;;;;;11.55;1.02;;;24.50;89.00;;;;;;5091754;28;20032;-57
2023/06/03 11:37:40;;;;;;;1.08;0.90;;;25.00;90.80;;;;;;5090499;28;20036;-56
2023/06/03 11:40:08;;;;;;;1.73;0.77;;;24.60;88.00;;;;;;5090641;28;20078;-58
2023/06/03 11:42:52;;;;;;;2.67;0.57;;;24.70;88.70;;;;;;5124776;28;20044;-58
2023/06/03 11:45:29;;;;;;;1.77;0.73;;;24.90;87.60;;;;;;5063716;28;20040;-58
2023/06/03 11:48:01;;;;;;;1.90;0.70;;;25.00;86.70;;;;;;5091571;28;20386;-58
2023/06/03 11:50:43;;;;;;;2.60;0.90;;;24.90;87.50;;;;;;5091540;28;20494;-57
2023/06/03 11:53:09;;;;;;;1.42;0.70;;;24.40;86.20;;;;;;5091663;28;20052;-58
2023/06/03 11:55:35;;;;;;;3.50;0.88;;;24.60;87.60;;;;;;5091952;28;20508;-57
2023/06/03 11:58:09;;;;;;;3.97;1.48;;;24.80;86.90;;;;;;5092290;28;20162;-57
2023/06/03 12:00:35;;;;;;;1.23;0.70;;;24.80;88.00;;;;;;5056435;28;20052;-57
2023/06/03 12:03:00;;;;;;;3.40;0.98;;;24.90;87.90;;;;;;5083788;28;20040;-57
2023/06/03 12:05:26;;;;;;;1.95;0.82;;;24.90;89.10;;;;;;5091631;28;20107;-57
2023/06/03 12:07:54;;;;;;;2.88;0.90;;;25.10;89.60;;;;;;5091867;28;20028;-57
2023/06/03 12:10:20;;;;;;;1.67;0.90;;;25.10;87.00;;;;;;5091566;28;20394;-58
2023/06/03 12:12:50;;;;;;;1.70;0.90;;;24.70;87.20;;;;;;5091397;28;20108;-58
2023/06/03 12:15:17;;;;;;;4.88;1.00;;;24.90;88.30;;;;;;5091226;28;20394;-56
2023/06/03 12:17:43;;;;;;;2.88;0.63;;;25.00;88.00;;;;;;5091378;28;20036;-57
2023/06/03 12:20:09;;;;;;;3.15;1.02;;;24.60;87.70;;;;;;5091285;28;20498;-57
2023/06/03 12:22:35;;;;;;;3.88;1.10;;;24.10;88.00;;;;;;5091221;28;20047;-56
2023/06/03 12:25:01;;;;;;;3.42;0.88;;;24.40;88.90;;;;;;5091318;28;20040;-56
2023/06/03 12:27:27;;;;;;;4.32;0.80;;;24.50;89.20;;;;;;5091139;28;20051;-57
2023/06/03 12:29:54;;;;;;;1.60;0.70;;;24.60;89.40;;;;;;5090226;28;20130;-57
2023/06/03 12:32:19;;;;;;;2.10;0.82;;;24.60;87.60;;;;;;5091697;28;20407;-57
2023/06/03 12:34:46;;;;;;;2.20;1.10;;;24.60;88.40;;;;;;5090055;28;20028;-57
2023/06/03 12:37:15;;;;;;;4.22;1.05;;;24.50;87.70;;;;;;5091532;28;20036;-57
2023/06/03 12:39:42;;;;;;;0.90;0.63;;;24.30;87.50;;;;;;5091311;28;20043;-58
2023/06/03 12:42:09;;;;;;;2.00;0.85;;;24.60;90.30;;;;;;5091403;28;20629;-57
2023/06/03 12:44:50;;;;;;;3.55;0.90;;;24.50;89.50;;;;;;5092040;28;20044;-57
2023/06/03 12:47:17;;;;;;;5.72;0.80;;;24.70;88.80;;;;;;5094821;28;20044;-58
2023/06/03 12:49:44;;;;;;;1.98;0.95;;;24.70;90.10;;;;;;5094720;28;20040;-57
2023/06/03 12:52:15;;;;;;;1.48;0.80;;;24.40;88.50;;;;;;5094688;28;20055;-56
2023/06/03 12:54:42;;;;;;;2.67;1.05;;;24.20;89.60;;;;;;5094628;28;20405;-57
2023/06/03 12:57:09;;;;;;;1.98;1.10;;;24.40;88.80;;;;;;5094701;28;20115;-58